Time;durP1;ratioP1;P1;durP2;ratioP2;P2;SDS_P1;SDS_P2;PMS_P1;PMS_P2;Temp;Humidity;BMP_temperature;BMP_pressure;BME280_temperature;BME280_humidity;BME280_pressure;Samples;Min_cycle;Max_cycle;Signal;HPM_P1;HPM_P2
2023/12/21 00:01:46;;;;;;;11.25;2.72;;;11.10;99.90;;;;;;5090940;28;20595;-68
2023/12/21 00:04:12;;;;;;;8.75;2.45;;;11.10;99.90;;;;;;5091348;28;20024;-69
2023/12/21 00:06:38;;;;;;;8.32;1.95;;;11.10;99.90;;;;;;5091794;28;20023;-69
2023/12/21 00:09:06;;;;;;;7.28;1.92;;;11.20;99.90;;;;;;5091711;28;20102;-69
2023/12/21 00:11:32;;;;;;;7.78;2.30;;;11.30;99.90;;;;;;5091648;28;20028;-69
2023/12/21 00:13:59;;;;;;;6.63;2.50;;;11.50;99.90;;;;;;5091775;28;20528;-69
2023/12/21 00:16:25;;;;;;;8.35;2.40;;;11.60;99.90;;;;;;5091375;28;20086;-69
2023/12/21 00:18:50;;;;;;;11.82;3.13;;;11.70;99.90;;;;;;5091715;28;20035;-69
2023/12/21 00:21:16;;;;;;;8.65;2.65;;;11.80;99.90;;;;;;5091135;28;20028;-69
2023/12/21 00:23:41;;;;;;;8.18;2.67;;;11.80;99.90;;;;;;5091516;28;20048;-69
2023/12/21 00:26:07;;;;;;;9.95;3.00;;;11.90;99.90;;;;;;5091847;28;20043;-69
2023/12/21 00:28:33;;;;;;;7.60;2.60;;;11.90;99.90;;;;;;5091475;28;20055;-68
2023/12/21 00:30:58;;;;;;;5.30;2.20;;;11.90;99.90;;;;;;5091324;28;20371;-69
2023/12/21 00:33:24;;;;;;;6.78;2.22;;;11.90;99.90;;;;;;5091035;28;20444;-69
2023/12/21 00:35:50;;;;;;;7.47;2.35;;;12.00;99.90;;;;;;5089946;28;20459;-68
2023/12/21 00:38:15;;;;;;;8.52;2.42;;;11.90;99.90;;;;;;5091710;28;20119;-68
2023/12/21 00:40:41;;;;;;;10.32;2.60;;;11.80;99.90;;;;;;5091119;28;20036;-68
2023/12/21 00:43:06;;;;;;;7.80;2.47;;;11.60;99.90;;;;;;5091225;28;20074;-68
2023/12/21 00:45:32;;;;;;;9.40;2.95;;;11.60;99.90;;;;;;5090997;28;20415;-68
2023/12/21 00:47:58;;;;;;;9.48;2.67;;;11.50;99.90;;;;;;5090560;28;20103;-68
2023/12/21 00:50:23;;;;;;;6.55;2.03;;;11.50;99.90;;;;;;5091260;28;20035;-68
2023/12/21 00:52:49;;;;;;;7.15;1.77;;;11.40;99.90;;;;;;5091219;28;20035;-68
2023/12/21 00:55:15;;;;;;;7.03;2.00;;;11.40;99.90;;;;;;5090903;28;20036;-68
2023/12/21 00:57:40;;;;;;;8.63;2.22;;;11.30;99.90;;;;;;5091593;28;20020;-68
2023/12/21 01:00:07;;;;;;;9.32;2.30;;;11.30;99.90;;;;;;5090871;28;20028;-68
2023/12/21 01:02:35;;;;;;;8.85;2.53;;;11.40;99.90;;;;;;5090818;28;20020;-67
2023/12/21 01:05:00;;;;;;;9.38;2.63;;;11.30;99.90;;;;;;5091136;28;20403;-69
2023/12/21 01:07:26;;;;;;;9.40;2.58;;;11.30;99.90;;;;;;5090869;28;20030;-68
2023/12/21 01:09:52;;;;;;;9.25;2.47;;;11.30;99.90;;;;;;5091457;28;20444;-68
2023/12/21 01:12:17;;;;;;;10.27;2.50;;;11.30;99.90;;;;;;5090988;28;20386;-67
2023/12/21 01:14:43;;;;;;;10.95;2.20;;;11.30;99.90;;;;;;5090808;28;20036;-68
2023/12/21 01:17:09;;;;;;;9.98;2.88;;;11.30;99.90;;;;;;5089577;28;20031;-68
2023/12/21 01:19:35;;;;;;;10.30;2.50;;;11.30;99.90;;;;;;5090852;28;20032;-68
2023/12/21 01:22:02;;;;;;;8.00;2.20;;;11.30;99.90;;;;;;5090971;28;20035;-67
2023/12/21 01:24:28;;;;;;;8.10;1.75;;;11.30;99.90;;;;;;5091110;28;20028;-68
2023/12/21 01:26:53;;;;;;;11.57;2.30;;;11.30;99.90;;;;;;5091415;28;20509;-68
2023/12/21 01:29:19;;;;;;;8.80;2.10;;;11.30;99.90;;;;;;5090748;28;20028;-67
2023/12/21 01:31:45;;;;;;;9.30;2.05;;;11.30;99.90;;;;;;5090473;28;20043;-68
2023/12/21 01:34:11;;;;;;;10.70;2.53;;;11.40;99.90;;;;;;5091223;28;20024;-68
2023/12/21 01:36:37;;;;;;;9.30;1.95;;;11.30;99.90;;;;;;5090591;28;20074;-67
2023/12/21 01:39:03;;;;;;;9.48;2.15;;;11.30;99.90;;;;;;5090796;28;20409;-68
2023/12/21 01:41:29;;;;;;;10.30;2.25;;;11.30;99.90;;;;;;5089302;28;20504;-68
2023/12/21 01:43:54;;;;;;;7.63;2.20;;;11.30;99.90;;;;;;5090445;28;20043;-68
2023/12/21 01:46:23;;;;;;;9.35;2.42;;;11.30;99.90;;;;;;5090359;28;20020;-68
2023/12/21 01:48:50;;;;;;;10.63;2.47;;;11.30;99.90;;;;;;5091095;28;20044;-67
2023/12/21 01:51:16;;;;;;;7.35;2.33;;;11.20;99.90;;;;;;5090822;28;20044;-68
2023/12/21 01:53:43;;;;;;;10.52;2.47;;;11.20;99.90;;;;;;5090612;28;20028;-68
2023/12/21 01:56:09;;;;;;;9.98;2.70;;;11.20;99.90;;;;;;5090422;28;20102;-68
2023/12/21 01:58:36;;;;;;;9.43;2.38;;;11.40;99.90;;;;;;5091598;28;20455;-68
2023/12/21 02:01:03;;;;;;;12.93;2.83;;;11.60;99.90;;;;;;5093851;28;20024;-68
2023/12/21 02:03:30;;;;;;;12.27;2.50;;;11.80;99.90;;;;;;5093887;28;20465;-68
2023/12/21 02:05:55;;;;;;;9.60;2.28;;;11.90;99.90;;;;;;5093926;28;20024;-69
2023/12/21 02:08:21;;;;;;;9.23;1.98;;;12.00;99.90;;;;;;5094119;28;20031;-68
2023/12/21 02:10:47;;;;;;;9.70;2.13;;;12.00;99.90;;;;;;5093980;28;20028;-69
2023/12/21 02:13:13;;;;;;;8.57;2.10;;;12.10;99.90;;;;;;5093860;28;20084;-69
2023/12/21 02:15:39;;;;;;;8.75;1.92;;;12.00;99.90;;;;;;5093583;28;20090;-69
2023/12/21 02:18:07;;;;;;;7.93;1.70;;;12.10;99.90;;;;;;5093702;28;20028;-69
2023/12/21 02:20:34;;;;;;;6.47;2.08;;;12.00;99.90;;;;;;5094308;28;20032;-69
2023/12/21 02:23:03;;;;;;;7.50;1.98;;;11.90;99.90;;;;;;5093746;28;20022;-68
2023/12/21 02:25:30;;;;;;;9.77;2.28;;;11.90;99.90;;;;;;5093749;28;20566;-68
2023/12/21 02:27:56;;;;;;;6.28;1.83;;;12.00;99.90;;;;;;5093674;28;20069;-68
2023/12/21 02:30:22;;;;;;;8.93;2.17;;;11.80;99.90;;;;;;5093313;28;20102;-68
2023/12/21 02:32:47;;;;;;;9.60;2.17;;;11.70;99.90;;;;;;5093532;28;20024;-69
2023/12/21 02:35:15;;;;;;;9.18;2.00;;;11.60;99.90;;;;;;5093532;28;20032;-68
2023/12/21 02:37:40;;;;;;;9.20;2.42;;;11.60;99.90;;;;;;5093695;28;20059;-68
2023/12/21 02:40:06;;;;;;;11.52;2.45;;;11.50;99.90;;;;;;5093210;28;20117;-68
2023/12/21 02:42:32;;;;;;;9.85;1.98;;;11.50;99.90;;;;;;5093326;28;20028;-68
2023/12/21 02:44:58;;;;;;;10.07;2.05;;;11.50;99.90;;;;;;5092985;28;20485;-68
2023/12/21 02:47:23;;;;;;;9.73;1.92;;;11.40;99.90;;;;;;5093555;28;20406;-68
2023/12/21 02:49:49;;;;;;;8.07;2.00;;;11.50;99.90;;;;;;5093234;28;20032;-68
2023/12/21 02:52:14;;;;;;;8.98;2.00;;;11.40;99.90;;;;;;5093211;28;20038;-67
2023/12/21 02:54:40;;;;;;;12.05;2.53;;;11.40;99.90;;;;;;5092801;28;20064;-68
2023/12/21 02:57:06;;;;;;;13.85;2.42;;;11.40;99.90;;;;;;5093064;28;20067;-67
2023/12/21 02:59:31;;;;;;;9.93;2.47;;;11.40;99.90;;;;;;5092638;28;20082;-68
2023/12/21 03:01:57;;;;;;;8.85;2.20;;;11.40;99.90;;;;;;5093450;28;20035;-67
2023/12/21 03:04:23;;;;;;;9.55;2.17;;;11.30;99.90;;;;;;5092811;28;20525;-68
2023/12/21 03:06:48;;;;;;;8.10;1.95;;;11.30;99.90;;;;;;5092839;28;20103;-68
2023/12/21 03:09:14;;;;;;;7.53;1.60;;;11.20;99.90;;;;;;5092848;28;20440;-68
2023/12/21 03:11:40;;;;;;;6.28;1.70;;;11.20;99.90;;;;;;5092996;28;20551;-69
2023/12/21 03:14:06;;;;;;;7.18;1.83;;;11.20;99.90;;;;;;5092380;28;20107;-68
2023/12/21 03:16:33;;;;;;;9.35;2.35;;;11.20;99.90;;;;;;5092586;28;20032;-67
2023/12/21 03:18:59;;;;;;;10.00;2.35;;;11.20;99.90;;;;;;5092717;28;20028;-67
2023/12/21 03:21:25;;;;;;;10.82;2.30;;;11.20;99.90;;;;;;5093040;28;20542;-68
2023/12/21 03:23:50;;;;;;;8.85;2.20;;;11.20;99.90;;;;;;5092650;28;20024;-68
2023/12/21 03:26:17;;;;;;;11.75;2.28;;;11.20;99.90;;;;;;5092541;28;20028;-68
2023/12/21 03:28:44;;;;;;;7.10;1.83;;;11.10;99.90;;;;;;5092117;28;20016;-68
2023/12/21 03:31:10;;;;;;;11.85;2.67;;;11.20;99.90;;;;;;5092325;28;20035;-68
2023/12/21 03:33:36;;;;;;;11.02;2.28;;;11.10;99.90;;;;;;5092284;28;20034;-67
2023/12/21 03:36:02;;;;;;;12.27;2.42;;;11.10;99.90;;;;;;5092201;28;20039;-68
2023/12/21 03:38:28;;;;;;;9.82;2.28;;;11.10;99.90;;;;;;5092236;28;20028;-68
2023/12/21 03:40:54;;;;;;;14.48;2.42;;;11.10;99.90;;;;;;5091845;28;20109;-68
2023/12/21 03:43:20;;;;;;;12.00;2.40;;;11.10;99.90;;;;;;5092536;28;20387;-69
2023/12/21 03:45:46;;;;;;;11.82;2.33;;;11.10;99.90;;;;;;5092096;28;20048;-69
2023/12/21 03:48:11;;;;;;;12.65;2.38;;;11.40;99.90;;;;;;5092286;28;20374;-69
2023/12/21 03:50:37;;;;;;;9.02;2.55;;;11.40;99.90;;;;;;5092200;28;20054;-68
2023/12/21 03:53:03;;;;;;;10.48;2.58;;;11.60;99.90;;;;;;5092367;28;20278;-68
2023/12/21 03:55:30;;;;;;;13.25;2.88;;;11.70;99.90;;;;;;5091454;28;20042;-69
2023/12/21 03:57:56;;;;;;;12.00;2.70;;;11.80;99.90;;;;;;5092067;28;20024;-69
2023/12/21 04:00:23;;;;;;;13.73;2.80;;;11.90;99.90;;;;;;5091964;28;20501;-68
2023/12/21 04:02:48;;;;;;;11.43;3.17;;;12.00;99.90;;;;;;5091824;28;20023;-69
2023/12/21 04:05:15;;;;;;;14.07;2.92;;;12.00;99.90;;;;;;5091840;28;20444;-69
2023/12/21 04:07:40;;;;;;;16.48;3.42;;;12.10;99.90;;;;;;5091724;28;20028;-68
2023/12/21 04:10:07;;;;;;;13.70;3.22;;;12.00;99.90;;;;;;5091475;28;20024;-69
2023/12/21 04:12:32;;;;;;;12.98;3.03;;;12.10;99.90;;;;;;5091947;28;20058;-68
2023/12/21 04:14:58;;;;;;;13.93;3.15;;;12.20;99.90;;;;;;5090374;28;20055;-68
2023/12/21 04:17:24;;;;;;;13.90;3.05;;;12.00;99.90;;;;;;5091738;28;20498;-68
2023/12/21 04:19:51;;;;;;;11.73;2.85;;;11.90;99.90;;;;;;5091518;28;20032;-68
2023/12/21 04:22:17;;;;;;;13.30;3.10;;;11.80;99.90;;;;;;5090996;28;20495;-68
2023/12/21 04:24:42;;;;;;;11.82;3.35;;;11.70;99.90;;;;;;5091210;28;20080;-68
2023/12/21 04:27:08;;;;;;;14.07;3.55;;;11.60;99.90;;;;;;5091608;28;20478;-68
2023/12/21 04:29:34;;;;;;;14.73;3.50;;;11.50;99.90;;;;;;5091486;28;20378;-67
2023/12/21 04:32:00;;;;;;;13.70;3.30;;;11.40;99.90;;;;;;5091634;28;20150;-68
2023/12/21 04:34:25;;;;;;;14.60;3.13;;;11.40;99.90;;;;;;5091501;28;20042;-68
2023/12/21 04:36:51;;;;;;;12.85;3.33;;;11.40;99.90;;;;;;5091022;28;20024;-68
2023/12/21 04:39:17;;;;;;;15.93;4.25;;;11.30;99.90;;;;;;5090918;28;20032;-68
2023/12/21 04:41:42;;;;;;;17.75;3.50;;;11.30;99.90;;;;;;5091332;28;20028;-68
2023/12/21 04:44:08;;;;;;;15.52;3.88;;;11.30;99.90;;;;;;5091114;28;20044;-68
2023/12/21 04:46:34;;;;;;;22.50;4.32;;;11.30;99.90;;;;;;5090413;28;20409;-68
2023/12/21 04:48:59;;;;;;;17.95;4.28;;;11.20;99.90;;;;;;5091370;28;20032;-68
2023/12/21 04:51:25;;;;;;;18.85;4.38;;;11.30;99.90;;;;;;5091177;28;20027;-68
2023/12/21 04:53:50;;;;;;;16.90;3.97;;;11.30;99.90;;;;;;5090903;28;20028;-68
2023/12/21 04:56:16;;;;;;;12.27;3.60;;;11.30;99.90;;;;;;5091057;28;20039;-68
2023/12/21 04:58:42;;;;;;;14.13;3.38;;;11.30;99.90;;;;;;5091120;28;20063;-68
2023/12/21 05:01:08;;;;;;;12.95;3.47;;;11.30;99.90;;;;;;5091540;28;20093;-68
2023/12/21 05:03:34;;;;;;;17.70;4.20;;;11.30;99.90;;;;;;5091057;28;20021;-68
2023/12/21 05:06:01;;;;;;;14.95;3.60;;;11.30;99.90;;;;;;5090950;28;20466;-68
2023/12/21 05:08:26;;;;;;;12.68;3.50;;;11.40;99.90;;;;;;5090834;28;20066;-68
2023/12/21 05:10:52;;;;;;;13.70;3.95;;;11.40;99.90;;;;;;5090986;28;20043;-69
2023/12/21 05:13:18;;;;;;;16.00;4.20;;;11.40;99.90;;;;;;5091318;28;20119;-68
2023/12/21 05:15:44;;;;;;;24.65;5.13;;;11.40;99.90;;;;;;5090976;28;20431;-68
2023/12/21 05:18:10;;;;;;;27.67;5.45;;;11.40;99.90;;;;;;5091137;28;20055;-68
2023/12/21 05:20:35;;;;;;;24.60;5.75;;;11.40;99.90;;;;;;5090940;28;20028;-68
2023/12/21 05:23:01;;;;;;;21.77;5.15;;;11.40;99.90;;;;;;5090697;28;20020;-68
2023/12/21 05:25:27;;;;;;;21.88;4.88;;;11.40;99.90;;;;;;5090939;28;20550;-68
2023/12/21 05:27:53;;;;;;;20.58;4.85;;;11.40;99.90;;;;;;5090841;28;20024;-68
2023/12/21 05:30:19;;;;;;;20.58;4.50;;;11.40;99.90;;;;;;5090952;28;20486;-68
2023/12/21 05:32:45;;;;;;;17.00;3.70;;;11.40;99.90;;;;;;5090730;28;20024;-69
2023/12/21 05:35:12;;;;;;;13.32;3.53;;;11.40;99.90;;;;;;5094677;28;20047;-69
2023/12/21 05:37:38;;;;;;;12.98;3.60;;;11.60;99.90;;;;;;5094137;28;20025;-69
2023/12/21 05:40:06;;;;;;;12.18;2.88;;;11.80;99.90;;;;;;5094458;28;20401;-69
2023/12/21 05:42:32;;;;;;;15.82;3.50;;;11.90;99.90;;;;;;5094639;28;20025;-69
2023/12/21 05:44:58;;;;;;;15.27;3.30;;;11.90;99.90;;;;;;5094727;28;20130;-69
2023/12/21 05:47:23;;;;;;;13.80;3.35;;;12.00;99.90;;;;;;5094475;28;20035;-69
2023/12/21 05:49:49;;;;;;;12.20;3.28;;;12.00;99.90;;;;;;5094443;28;20449;-69
2023/12/21 05:52:15;;;;;;;11.27;3.10;;;12.10;99.90;;;;;;5094034;28;20026;-69
2023/12/21 05:54:40;;;;;;;13.07;3.42;;;12.10;99.90;;;;;;5094151;28;20108;-69
2023/12/21 05:57:06;;;;;;;14.85;3.70;;;12.20;99.90;;;;;;5094225;28;20028;-69
2023/12/21 05:59:32;;;;;;;14.88;3.78;;;12.20;99.90;;;;;;5094307;28;20024;-69
2023/12/21 06:01:58;;;;;;;14.05;3.53;;;12.30;99.90;;;;;;5094698;28;20028;-68
2023/12/21 06:04:24;;;;;;;10.85;2.67;;;12.40;99.90;;;;;;5094036;28;20546;-68
2023/12/21 06:06:49;;;;;;;12.52;3.05;;;12.30;99.90;;;;;;5093788;28;20032;-68
2023/12/21 06:09:15;;;;;;;12.77;3.00;;;12.10;99.90;;;;;;5092788;28;20032;-69
2023/12/21 06:11:41;;;;;;;14.02;3.63;;;11.90;99.90;;;;;;5094470;28;20055;-68
2023/12/21 06:14:07;;;;;;;13.20;3.40;;;11.80;99.90;;;;;;5093986;28;20036;-68
2023/12/21 06:16:32;;;;;;;14.88;3.55;;;11.60;99.90;;;;;;5093864;28;20111;-68
2023/12/21 06:18:59;;;;;;;15.15;3.85;;;11.60;99.90;;;;;;5093699;28;20457;-68
2023/12/21 06:21:25;;;;;;;15.77;4.10;;;11.50;99.90;;;;;;5093509;28;20028;-68
2023/12/21 06:23:51;;;;;;;18.67;4.55;;;11.50;99.90;;;;;;5094103;28;20458;-68
2023/12/21 06:26:17;;;;;;;14.35;3.75;;;11.50;99.90;;;;;;5093668;28;20020;-67
2023/12/21 06:28:42;;;;;;;19.98;4.28;;;11.50;99.90;;;;;;5093697;28;20032;-67
2023/12/21 06:31:13;;;;;;;16.52;3.88;;;11.50;99.90;;;;;;5093700;28;20401;-67
2023/12/21 06:33:39;;;;;;;18.08;4.22;;;11.50;99.90;;;;;;5093374;28;20028;-67
2023/12/21 06:36:05;;;;;;;18.40;4.65;;;11.50;99.90;;;;;;5092935;28;20038;-68
2023/12/21 06:38:30;;;;;;;21.50;4.80;;;11.50;99.90;;;;;;5093864;28;20157;-68
2023/12/21 06:40:56;;;;;;;17.98;4.70;;;11.50;99.90;;;;;;5092289;28;20066;-68
2023/12/21 06:43:23;;;;;;;21.77;4.88;;;11.50;99.90;;;;;;5093273;28;20027;-68
2023/12/21 06:45:49;;;;;;;23.33;5.43;;;11.50;99.90;;;;;;5092842;28;20430;-68
2023/12/21 06:48:15;;;;;;;20.17;4.88;;;11.50;99.90;;;;;;5093059;28;20024;-68
2023/12/21 06:50:41;;;;;;;18.30;5.03;;;11.50;99.90;;;;;;5092783;28;20085;-68
2023/12/21 06:53:06;;;;;;;24.38;5.43;;;11.50;99.90;;;;;;5093536;28;20020;-68
2023/12/21 06:55:32;;;;;;;24.67;5.25;;;11.50;99.90;;;;;;5092860;28;20035;-68
2023/12/21 06:57:57;;;;;;;25.98;5.95;;;11.50;99.90;;;;;;5093133;28;20367;-68
2023/12/21 07:00:23;;;;;;;27.60;5.82;;;11.50;99.90;;;;;;5093118;28;20082;-68
2023/12/21 07:02:49;;;;;;;22.15;5.32;;;11.60;99.90;;;;;;5092860;28;20089;-68
2023/12/21 07:05:14;;;;;;;23.75;5.85;;;11.60;99.90;;;;;;5092580;28;20035;-68
2023/12/21 07:07:40;;;;;;;23.45;5.45;;;11.60;99.90;;;;;;5092864;28;20028;-68
2023/12/21 07:10:07;;;;;;;23.63;5.53;;;11.60;99.90;;;;;;5093021;28;20034;-68
2023/12/21 07:12:33;;;;;;;23.48;5.68;;;11.60;99.90;;;;;;5093229;28;20035;-68
2023/12/21 07:14:59;;;;;;;21.98;5.65;;;11.70;99.90;;;;;;5092443;28;20402;-68
2023/12/21 07:17:24;;;;;;;22.88;5.15;;;11.70;99.90;;;;;;5092512;28;20510;-68
2023/12/21 07:19:50;;;;;;;20.88;5.05;;;11.70;99.90;;;;;;5092645;28;20024;-68
2023/12/21 07:22:16;;;;;;;21.85;5.28;;;11.70;99.90;;;;;;5092561;28;20550;-68
2023/12/21 07:24:41;;;;;;;23.25;5.38;;;11.80;99.90;;;;;;5092529;28;20042;-69
2023/12/21 07:27:07;;;;;;;25.58;5.40;;;11.80;99.90;;;;;;5092903;28;20027;-69
2023/12/21 07:29:33;;;;;;;20.27;5.75;;;12.10;99.90;;;;;;5092459;28;20032;-69
2023/12/21 07:31:59;;;;;;;21.50;5.65;;;12.30;99.90;;;;;;5092221;28;20035;-69
2023/12/21 07:34:25;;;;;;;21.35;5.30;;;12.50;99.90;;;;;;5092558;28;20509;-70
2023/12/21 07:36:50;;;;;;;16.83;4.80;;;12.70;99.90;;;;;;5092262;28;20118;-69
2023/12/21 07:39:16;;;;;;;18.08;4.85;;;12.80;99.90;;;;;;5092268;28;20055;-68
2023/12/21 07:41:41;;;;;;;18.38;4.40;;;12.80;99.90;;;;;;5092087;28;20031;-69
2023/12/21 07:44:07;;;;;;;19.85;4.40;;;12.80;99.90;;;;;;5092048;28;20048;-69
2023/12/21 07:46:33;;;;;;;21.13;4.70;;;12.90;99.90;;;;;;5092082;28;20068;-69
2023/12/21 07:48:59;;;;;;;13.95;4.30;;;12.90;99.90;;;;;;5091929;28;20028;-71
2023/12/21 07:51:24;;;;;;;20.77;4.85;;;12.80;99.90;;;;;;5092496;28;20028;-71
2023/12/21 07:53:50;;;;;;;18.70;4.82;;;13.00;99.90;;;;;;5092061;28;20039;-71
2023/12/21 07:56:16;;;;;;;13.95;4.03;;;13.00;99.90;;;;;;5091100;28;20039;-71
2023/12/21 07:58:42;;;;;;;17.30;5.25;;;12.80;99.90;;;;;;5091964;28;20024;-70
2023/12/21 08:01:07;;;;;;;19.60;5.20;;;12.70;99.90;;;;;;5091734;28;20059;-70
2023/12/21 08:03:33;;;;;;;21.77;5.43;;;12.50;99.90;;;;;;5091753;28;20052;-71
2023/12/21 08:05:59;;;;;;;24.77;5.32;;;12.40;99.90;;;;;;5091483;28;20520;-70
2023/12/21 08:08:24;;;;;;;25.60;6.05;;;12.40;99.90;;;;;;5092248;28;20032;-70
2023/12/21 08:10:50;;;;;;;22.35;5.60;;;12.30;99.90;;;;;;5091729;28;20101;-70
2023/12/21 08:13:16;;;;;;;23.55;5.82;;;12.30;99.90;;;;;;5091774;28;20020;-70
2023/12/21 08:15:41;;;;;;;26.10;6.18;;;12.30;99.90;;;;;;5091571;28;20032;-70
2023/12/21 08:18:09;;;;;;;23.38;5.70;;;12.20;99.90;;;;;;5091198;28;20048;-70
2023/12/21 08:20:36;;;;;;;21.00;5.50;;;12.20;99.90;;;;;;5091647;28;20032;-70
2023/12/21 08:23:03;;;;;;;17.95;4.85;;;12.20;99.90;;;;;;5091625;28;20035;-70
2023/12/21 08:25:31;;;;;;;20.30;4.72;;;12.20;99.90;;;;;;5091731;28;20028;-69
2023/12/21 08:27:57;;;;;;;23.20;5.13;;;12.20;99.90;;;;;;5091954;28;20482;-70
2023/12/21 08:30:22;;;;;;;20.02;4.93;;;12.20;99.90;;;;;;5091396;28;20043;-69
2023/12/21 08:32:48;;;;;;;18.38;4.07;;;12.20;99.90;;;;;;5090912;28;20061;-70
2023/12/21 08:35:14;;;;;;;16.02;3.90;;;12.20;99.90;;;;;;5091247;28;20063;-70
2023/12/21 08:37:39;;;;;;;19.15;4.40;;;12.20;99.90;;;;;;5091232;28;20028;-70
2023/12/21 08:40:07;;;;;;;16.15;4.20;;;12.20;99.90;;;;;;5091291;28;20020;-70
2023/12/21 08:42:32;;;;;;;17.90;3.88;;;12.20;99.90;;;;;;5091305;28;20035;-70
2023/12/21 08:45:03;;;;;;;19.52;4.05;;;12.20;99.90;;;;;;5091491;28;20044;-70
2023/12/21 08:47:28;;;;;;;16.77;4.28;;;12.30;99.90;;;;;;5089739;28;20024;-71
2023/12/21 08:49:54;;;;;;;18.58;4.85;;;12.30;99.90;;;;;;5091201;28;20027;-70
2023/12/21 08:52:19;;;;;;;23.10;5.40;;;12.40;99.90;;;;;;5091464;28;20505;-70
2023/12/21 08:54:45;;;;;;;19.52;5.22;;;12.60;99.90;;;;;;5090919;28;20028;-70
2023/12/21 08:57:12;;;;;;;19.90;4.63;;;12.60;99.90;;;;;;5091175;28;20566;-70
2023/12/21 08:59:37;;;;;;;20.70;5.22;;;12.70;99.90;;;;;;5091084;28;20038;-70
2023/12/21 09:02:03;;;;;;;19.48;4.43;;;12.60;99.90;;;;;;5090690;28;20113;-70
2023/12/21 09:04:29;;;;;;;21.30;4.55;;;12.50;99.90;;;;;;5091444;28;20028;-70
2023/12/21 09:06:55;;;;;;;20.70;4.75;;;12.50;99.90;;;;;;5091019;28;20491;-70
2023/12/21 09:09:20;;;;;;;23.20;5.20;;;12.50;99.90;;;;;;5095025;28;20089;-71
2023/12/21 09:11:46;;;;;;;21.48;5.20;;;12.50;99.90;;;;;;5095184;28;20021;-70
2023/12/21 09:14:12;;;;;;;25.30;5.00;;;12.50;99.90;;;;;;5094936;28;20401;-71
2023/12/21 09:16:37;;;;;;;19.73;4.72;;;12.70;99.90;;;;;;5095052;28;20081;-71
2023/12/21 09:19:03;;;;;;;20.83;4.60;;;12.90;99.90;;;;;;5095386;28;20077;-71
2023/12/21 09:21:29;;;;;;;19.17;3.97;;;13.10;99.90;;;;;;5094971;28;20020;-70
2023/12/21 09:23:55;;;;;;;13.52;3.20;;;13.30;99.90;;;;;;5094951;28;20032;-71
2023/12/21 09:26:20;;;;;;;14.07;4.40;;;13.40;99.90;;;;;;5094780;28;20032;-71
2023/12/21 09:28:46;;;;;;;15.13;3.50;;;13.50;99.90;;;;;;5095247;28;20509;-71
2023/12/21 09:31:12;;;;;;;11.48;3.05;;;13.60;99.90;;;;;;5094480;28;20404;-71
2023/12/21 09:33:39;;;;;;;15.75;3.92;;;13.60;99.90;;;;;;5094655;28;20380;-71
2023/12/21 09:36:06;;;;;;;14.85;3.58;;;13.70;99.90;;;;;;5094563;28;20067;-71
2023/12/21 09:38:32;;;;;;;11.57;3.13;;;13.80;99.90;;;;;;5095138;28;20035;-71
2023/12/21 09:40:59;;;;;;;8.02;2.78;;;13.80;99.90;;;;;;5094489;28;20462;-71
2023/12/21 09:43:25;;;;;;;11.88;2.70;;;13.90;99.90;;;;;;5094193;28;20114;-70
2023/12/21 09:45:51;;;;;;;12.85;3.38;;;13.90;99.90;;;;;;5094379;28;20123;-70
2023/12/21 09:48:18;;;;;;;11.98;2.63;;;13.80;99.90;;;;;;5094259;28;20024;-69
2023/12/21 09:50:45;;;;;;;11.85;2.90;;;13.60;99.90;;;;;;5094351;28;20044;-68
2023/12/21 09:53:13;;;;;;;13.82;3.03;;;13.50;99.90;;;;;;5094230;28;20031;-68
2023/12/21 09:55:49;;;;;;;10.13;2.70;;;13.40;99.90;;;;;;5094346;28;20063;-68
2023/12/21 09:58:15;;;;;;;14.13;3.08;;;13.40;99.90;;;;;;5093855;28;20024;-68
2023/12/21 10:00:41;;;;;;;12.27;3.00;;;13.40;99.90;;;;;;5094095;28;20064;-68
2023/12/21 10:03:07;;;;;;;13.25;3.00;;;13.50;99.90;;;;;;5094514;28;20020;-70
2023/12/21 10:05:34;;;;;;;13.02;3.25;;;13.40;99.90;;;;;;5094179;28;20375;-70
2023/12/21 10:08:00;;;;;;;14.07;3.58;;;13.30;99.90;;;;;;5093793;28;20422;-70
2023/12/21 10:10:26;;;;;;;11.40;3.00;;;13.30;99.90;;;;;;5093835;28;20044;-70
2023/12/21 10:12:52;;;;;;;10.80;2.80;;;13.20;99.90;;;;;;5093571;28;20567;-70
2023/12/21 10:15:18;;;;;;;8.88;2.60;;;13.10;99.90;;;;;;5094303;28;20494;-70
2023/12/21 10:17:44;;;;;;;7.93;1.92;;;13.00;99.90;;;;;;5093692;28;20077;-70
2023/12/21 10:20:11;;;;;;;6.78;1.63;;;12.90;99.90;;;;;;5092793;28;20024;-70
2023/12/21 10:22:40;;;;;;;6.15;1.88;;;12.90;99.90;;;;;;5093667;28;20032;-70
2023/12/21 10:25:07;;;;;;;6.60;2.08;;;12.90;99.90;;;;;;5093758;28;20418;-70
2023/12/21 10:27:34;;;;;;;9.80;2.25;;;12.90;99.90;;;;;;5093032;28;20040;-70
2023/12/21 10:29:59;;;;;;;9.30;2.45;;;12.90;99.90;;;;;;5093624;28;20024;-71
2023/12/21 10:32:25;;;;;;;12.60;2.55;;;13.00;99.90;;;;;;5093898;28;20058;-70
2023/12/21 10:34:53;;;;;;;12.77;2.80;;;13.00;99.90;;;;;;5093318;28;20028;-71
2023/12/21 10:37:20;;;;;;;12.13;2.80;;;13.00;99.90;;;;;;5093360;28;20042;-71
2023/12/21 10:39:46;;;;;;;14.07;3.38;;;13.10;99.90;;;;;;5093089;28;20115;-71
2023/12/21 10:42:15;;;;;;;19.55;3.90;;;13.10;99.90;;;;;;5093061;28;20106;-70
2023/12/21 10:44:44;;;;;;;17.98;3.40;;;13.20;99.90;;;;;;5092882;28;20063;-70
2023/12/21 10:47:20;;;;;;;15.95;3.78;;;13.10;99.90;;;;;;5093365;28;20097;-70
2023/12/21 10:49:46;;;;;;;18.63;3.55;;;13.10;99.90;;;;;;5093321;28;20305;-71
2023/12/21 10:52:12;;;;;;;13.95;3.80;;;13.10;99.90;;;;;;5093064;28;20039;-70
2023/12/21 10:54:42;;;;;;;18.25;4.03;;;13.10;99.90;;;;;;5093204;28;20028;-70
2023/12/21 10:57:09;;;;;;;15.25;3.42;;;13.10;99.90;;;;;;5092780;28;20489;-70
2023/12/21 10:59:35;;;;;;;14.95;3.63;;;13.10;99.90;;;;;;5093371;28;20028;-71
2023/12/21 11:02:03;;;;;;;13.70;3.30;;;13.20;99.90;;;;;;5092945;28;20032;-72
2023/12/21 11:04:29;;;;;;;16.10;3.53;;;13.50;99.90;;;;;;5092878;28;20034;-71
2023/12/21 11:06:56;;;;;;;15.25;3.58;;;13.60;99.90;;;;;;5092823;28;20028;-71
2023/12/21 11:09:22;;;;;;;16.65;3.50;;;13.70;99.90;;;;;;5092361;28;20095;-72
2023/12/21 11:11:48;;;;;;;12.45;3.05;;;14.00;99.90;;;;;;5092417;28;20119;-72
2023/12/21 11:14:17;;;;;;;14.93;3.60;;;14.10;99.90;;;;;;5092999;28;20150;-72
2023/12/21 11:16:50;;;;;;;15.15;3.88;;;14.20;99.90;;;;;;5092462;28;20078;-71
2023/12/21 11:19:29;;;;;;;18.25;4.15;;;14.30;99.90;;;;;;5092555;28;20031;-71
2023/12/21 11:21:55;;;;;;;12.52;3.70;;;14.40;99.90;;;;;;5092610;28;20027;-70
2023/12/21 11:24:22;;;;;;;15.57;3.83;;;14.40;99.90;;;;;;5092712;28;20020;-70
2023/12/21 11:26:49;;;;;;;11.73;3.33;;;14.40;99.90;;;;;;5092468;28;20166;-71
2023/12/21 11:29:23;;;;;;;16.20;3.40;;;14.30;99.90;;;;;;5092595;28;20028;-70
2023/12/21 11:31:48;;;;;;;12.90;2.83;;;14.30;99.90;;;;;;5092612;28;20143;-71
2023/12/21 11:34:23;;;;;;;9.23;2.78;;;14.10;99.90;;;;;;5092491;28;20056;-71
2023/12/21 11:36:57;;;;;;;10.95;2.97;;;13.90;99.90;;;;;;5091794;28;20059;-71
2023/12/21 11:39:24;;;;;;;12.75;2.90;;;13.80;99.90;;;;;;5091837;28;20035;-69
2023/12/21 11:41:58;;;;;;;10.23;2.90;;;13.70;99.90;;;;;;5092204;28;20445;-71
2023/12/21 11:44:24;;;;;;;;;;;13.70;99.90;;;;;;5092319;28;20402;-71
2023/12/21 11:46:59;;;;;;;9.05;2.10;;;13.70;99.90;;;;;;5092178;28;20346;-71
2023/12/21 11:49:25;;;;;;;9.15;2.33;;;13.70;99.90;;;;;;5092063;28;20496;-71
2023/12/21 11:51:51;;;;;;;8.90;2.60;;;13.70;99.90;;;;;;5092156;28;20064;-72
2023/12/21 11:54:19;;;;;;;13.25;2.70;;;13.80;99.90;;;;;;5091629;28;20065;-71
2023/12/21 11:56:45;;;;;;;7.25;2.40;;;13.80;99.90;;;;;;5091928;28;20123;-71
2023/12/21 11:59:10;;;;;;;7.80;2.55;;;13.90;99.90;;;;;;5091869;28;20107;-71
2023/12/21 12:01:37;;;;;;;9.30;2.35;;;13.80;99.90;;;;;;5091854;28;20085;-72
2023/12/21 12:04:05;;;;;;;10.35;2.70;;;13.80;99.90;;;;;;5091913;28;20024;-69
2023/12/21 12:06:32;;;;;;;10.93;3.25;;;13.80;99.90;;;;;;5091630;28;20089;-69
2023/12/21 12:08:58;;;;;;;11.43;2.80;;;13.70;99.90;;;;;;5091667;28;20498;-70
2023/12/21 12:11:25;;;;;;;13.63;2.97;;;13.60;99.90;;;;;;5091736;28;20105;-70
2023/12/21 12:13:50;;;;;;;12.45;3.25;;;13.50;99.90;;;;;;5091503;28;20492;-69
2023/12/21 12:16:17;;;;;;;15.02;3.53;;;13.50;99.90;;;;;;5091537;28;20040;-69
2023/12/21 12:18:43;;;;;;;13.95;3.05;;;13.50;99.90;;;;;;5091619;28;20555;-70
2023/12/21 12:21:10;;;;;;;9.73;2.60;;;13.40;99.90;;;;;;5091897;28;20032;-69
2023/12/21 12:23:35;;;;;;;9.88;2.55;;;13.40;99.90;;;;;;5091154;28;20024;-69
2023/12/21 12:26:02;;;;;;;9.38;2.50;;;13.40;99.90;;;;;;5091376;28;20486;-69
2023/12/21 12:28:28;;;;;;;11.68;2.45;;;13.40;99.90;;;;;;5091985;28;20032;-70
2023/12/21 12:30:54;;;;;;;10.32;2.63;;;13.50;99.90;;;;;;5091452;28;20028;-69
2023/12/21 12:33:20;;;;;;;11.25;3.28;;;13.40;99.90;;;;;;5091334;28;20030;-70
2023/12/21 12:35:49;;;;;;;11.50;3.10;;;13.40;99.90;;;;;;5091183;28;20028;-69